Time;durP1;ratioP1;P1;durP2;ratioP2;P2;SDS_P1;SDS_P2;PMS_P1;PMS_P2;Temp;Humidity;BMP_temperature;BMP_pressure;BME280_temperature;BME280_humidity;BME280_pressure;Samples;Min_cycle;Max_cycle;Signal;HPM_P1;HPM_P2
2021/08/12 00:01:08;;;;;;;9.40;3.72;;;;;;;13.44;100.00;101391.56;4983870;28;20053;-69
2021/08/12 00:03:38;;;;;;;7.05;4.53;;;;;;;13.38;100.00;101393.09;4983851;28;20045;-68
2021/08/12 00:06:08;;;;;;;7.07;4.50;;;;;;;13.34;100.00;101383.66;4986535;28;20042;-68
2021/08/12 00:08:35;;;;;;;6.60;4.15;;;;;;;13.23;100.00;101387.50;4984513;28;20046;-68
2021/08/12 00:11:04;;;;;;;9.35;3.97;;;;;;;13.10;100.00;101387.16;4985859;28;20513;-69
2021/08/12 00:13:33;;;;;;;6.63;3.80;;;;;;;13.21;100.00;101388.66;4991051;28;20042;-70
2021/08/12 00:16:03;;;;;;;9.82;4.47;;;;;;;13.04;100.00;101386.00;4989551;28;20304;-70
2021/08/12 00:18:31;;;;;;;8.30;4.60;;;;;;;12.93;100.00;101394.34;4989192;28;20161;-70
2021/08/12 00:21:01;;;;;;;6.45;4.10;;;;;;;12.98;100.00;101392.00;4988266;28;20081;-69
2021/08/12 00:23:31;;;;;;;8.00;4.40;;;;;;;13.07;100.00;101385.66;4988923;28;20514;-70
2021/08/12 00:26:02;;;;;;;8.80;4.50;;;;;;;12.86;100.00;101382.59;4988552;28;20046;-71
2021/08/12 00:28:30;;;;;;;7.05;4.20;;;;;;;12.95;100.00;101381.59;4988835;28;20038;-70
2021/08/12 00:30:58;;;;;;;10.02;4.28;;;;;;;13.05;100.00;101376.91;4986264;28;20084;-71
2021/08/12 00:33:27;;;;;;;7.78;4.38;;;;;;;13.19;100.00;101370.06;4989657;28;20431;-70
2021/08/12 00:35:55;;;;;;;11.60;5.28;;;;;;;13.01;100.00;101370.25;4989108;28;20537;-70
2021/08/12 00:38:23;;;;;;;12.95;4.78;;;;;;;12.88;100.00;101365.34;4988136;28;20319;-70
2021/08/12 00:40:52;;;;;;;7.95;4.50;;;;;;;12.68;100.00;101366.66;4986997;28;20042;-70
2021/08/12 00:43:20;;;;;;;9.52;4.90;;;;;;;12.56;100.00;101374.97;4988750;28;20061;-70
2021/08/12 00:45:49;;;;;;;8.52;4.82;;;;;;;12.52;100.00;101362.09;4991209;28;20254;-70
2021/08/12 00:48:17;;;;;;;9.02;5.57;;;;;;;12.55;100.00;101364.44;4988254;28;20097;-70
2021/08/12 00:50:45;;;;;;;9.13;4.65;;;;;;;12.56;100.00;101366.13;4987364;28;20112;-70
2021/08/12 00:53:24;;;;;;;9.10;4.80;;;;;;;12.57;100.00;101367.78;4990275;28;20351;-70
2021/08/12 00:55:53;;;;;;;11.45;4.85;;;;;;;12.77;100.00;101378.22;4988013;28;20030;-70
2021/08/12 00:58:21;;;;;;;9.70;4.38;;;;;;;12.84;100.00;101369.38;4990725;28;20338;-70
2021/08/12 01:00:55;;;;;;;10.07;4.70;;;;;;;12.71;100.00;101375.19;4988058;28;20311;-69
2021/08/12 01:03:23;;;;;;;12.40;5.18;;;;;;;12.74;100.00;101390.09;4989890;28;20089;-70
2021/08/12 01:05:52;;;;;;;11.07;4.70;;;;;;;12.70;100.00;101391.41;4987380;28;20121;-70
2021/08/12 01:08:34;;;;;;;13.10;4.55;;;;;;;12.57;100.00;101383.84;4987939;28;20050;-70
2021/08/12 01:11:09;;;;;;;10.40;4.65;;;;;;;12.57;100.00;101378.50;4987164;28;20129;-70
2021/08/12 01:13:50;;;;;;;8.20;4.57;;;;;;;12.44;100.00;101388.84;4987566;28;20109;-70
2021/08/12 01:16:22;;;;;;;7.88;4.28;;;;;;;12.37;100.00;101389.47;4988675;28;21181;-70
2021/08/12 01:18:54;;;;;;;8.45;4.60;;;;;;;12.36;100.00;101390.50;4987544;28;20054;-70
2021/08/12 01:21:47;;;;;;;8.60;4.45;;;;;;;12.54;100.00;101400.25;4985928;28;20046;-70
2021/08/12 01:24:17;;;;;;;9.37;4.23;;;;;;;12.56;100.00;101408.97;4967638;28;20094;-69
2021/08/12 01:26:48;;;;;;;6.95;4.07;;;;;;;12.50;100.00;101398.91;4986467;28;20352;-70
2021/08/12 01:29:20;;;;;;;7.00;4.45;;;;;;;12.48;100.00;101398.22;4985432;28;20405;-70
2021/08/12 01:31:59;;;;;;;9.23;3.92;;;;;;;12.32;100.00;101397.16;4990307;28;20046;-70
2021/08/12 01:34:43;;;;;;;8.73;4.32;;;;;;;12.28;100.00;101389.63;4986512;28;20039;-70
2021/08/12 01:37:11;;;;;;;5.78;3.90;;;;;;;12.33;100.00;101387.28;4986611;28;20109;-70
2021/08/12 01:39:42;;;;;;;7.35;4.70;;;;;;;12.31;100.00;101378.56;4983815;28;20382;-70
2021/08/12 01:42:12;;;;;;;7.82;4.25;;;;;;;12.51;100.00;101368.44;4987724;28;20100;-70
2021/08/12 01:44:45;;;;;;;11.18;4.45;;;;;;;12.64;100.00;101359.94;4988687;28;20057;-70
2021/08/12 01:47:17;;;;;;;10.50;4.97;;;;;;;12.55;100.00;101359.06;4986355;28;20102;-70
2021/08/12 01:49:50;;;;;;;7.95;5.03;;;;;;;12.44;100.00;101367.41;4983500;28;20124;-70
2021/08/12 01:52:19;;;;;;;14.45;5.47;;;;;;;12.44;100.00;101349.47;4988907;28;20075;-70
2021/08/12 01:54:48;;;;;;;16.75;5.20;;;;;;;12.50;100.00;101350.69;4986107;28;20041;-70
2021/08/12 01:57:16;;;;;;;10.93;5.10;;;;;;;12.57;100.00;101351.69;4988789;28;20061;-70
2021/08/12 01:59:44;;;;;;;9.50;5.20;;;;;;;12.52;100.00;101346.00;4986053;28;20049;-70
2021/08/12 02:02:13;;;;;;;10.15;5.03;;;;;;;12.45;100.00;101353.84;4987456;28;20046;-70
2021/08/12 02:04:42;;;;;;;11.60;5.80;;;;;;;12.36;100.00;101344.09;4987406;28;20124;-70
2021/08/12 02:07:12;;;;;;;13.75;5.65;;;;;;;12.39;100.00;101347.31;4988556;28;20092;-70
2021/08/12 02:09:40;;;;;;;12.20;5.80;;;;;;;12.45;100.00;101350.34;4986978;28;20038;-70
2021/08/12 02:12:11;;;;;;;13.27;6.10;;;;;;;12.52;100.00;101337.97;4985280;28;20568;-70
2021/08/12 02:14:39;;;;;;;12.38;6.07;;;;;;;12.67;100.00;101341.69;4987272;28;20054;-70
2021/08/12 02:17:07;;;;;;;9.77;5.13;;;;;;;12.79;100.00;101333.34;4987896;28;20056;-70
2021/08/12 02:19:36;;;;;;;7.68;4.78;;;;;;;12.74;100.00;101329.31;4986538;28;20116;-70
2021/08/12 02:22:09;;;;;;;8.73;4.80;;;;;;;12.65;100.00;101334.81;4987359;28;20058;-70
2021/08/12 02:24:46;;;;;;;11.13;5.90;;;;;;;12.61;100.00;101334.31;4986095;28;20509;-70
2021/08/12 02:27:21;;;;;;;8.27;4.65;;;;;;;12.64;100.00;101330.47;4985963;28;20046;-70
2021/08/12 02:29:49;;;;;;;10.50;5.32;;;;;;;12.62;100.00;101333.31;4984927;28;20038;-70
2021/08/12 02:32:17;;;;;;;8.65;5.20;;;;;;;12.70;100.00;101338.69;4986585;28;20054;-70
2021/08/12 02:34:46;;;;;;;8.75;5.22;;;;;;;12.67;100.00;101338.16;4984800;28;20366;-70
2021/08/12 02:37:17;;;;;;;12.00;5.72;;;;;;;12.60;100.00;101340.66;4988133;28;20075;-70
2021/08/12 02:39:47;;;;;;;10.15;5.50;;;;;;;12.49;100.00;101338.28;4983205;28;20054;-70
2021/08/12 02:42:15;;;;;;;11.45;5.43;;;;;;;12.42;100.00;101347.97;4987764;28;20094;-70
2021/08/12 02:44:44;;;;;;;11.75;6.57;;;;;;;12.44;100.00;101337.94;4988002;28;20374;-70
2021/08/12 02:47:14;;;;;;;11.80;5.13;;;;;;;12.32;100.00;101338.25;4987994;28;20097;-70
2021/08/12 02:49:44;;;;;;;9.40;5.28;;;;;;;12.28;100.00;101339.56;4983993;28;20054;-70
2021/08/12 02:52:13;;;;;;;9.77;5.22;;;;;;;12.24;100.00;101338.22;4987896;28;20093;-70
2021/08/12 02:54:42;;;;;;;11.23;5.60;;;;;;;12.15;100.00;101336.47;4987102;28;20382;-70
2021/08/12 02:57:11;;;;;;;10.77;5.07;;;;;;;12.09;100.00;101340.63;4987509;28;20120;-70
2021/08/12 02:59:39;;;;;;;8.45;5.65;;;;;;;12.20;100.00;101344.88;4986523;28;20042;-70
2021/08/12 03:02:11;;;;;;;11.45;5.97;;;;;;;12.23;100.00;101342.72;4986871;28;20431;-69
2021/08/12 03:04:39;;;;;;;9.93;5.30;;;;;;;12.18;100.00;101341.53;4987610;28;20104;-70
2021/08/12 03:07:08;;;;;;;12.80;6.22;;;;;;;12.25;100.00;101342.56;4987096;28;20334;-69
2021/08/12 03:09:37;;;;;;;14.45;7.03;;;;;;;12.18;100.00;101346.91;4982737;28;20054;-70
2021/08/12 03:12:06;;;;;;;11.93;6.28;;;;;;;12.28;100.00;101344.91;4988370;28;20054;-70
2021/08/12 03:14:36;;;;;;;12.13;6.22;;;;;;;12.40;100.00;101345.44;4985178;28;20117;-70
2021/08/12 03:17:04;;;;;;;14.90;6.50;;;;;;;12.35;100.00;101343.28;4987245;28;20046;-69
2021/08/12 03:19:32;;;;;;;12.40;5.78;;;;;;;12.32;100.00;101338.25;4983636;28;20046;-70
2021/08/12 03:22:05;;;;;;;10.75;6.10;;;;;;;12.27;100.00;101351.25;4986090;28;20050;-70
2021/08/12 03:24:34;;;;;;;12.18;6.45;;;;;;;12.31;100.00;101357.16;4987516;28;20587;-70
2021/08/12 03:27:07;;;;;;;12.57;6.75;;;;;;;12.20;100.00;101352.91;4984688;28;20389;-69
2021/08/12 03:29:36;;;;;;;15.05;7.07;;;;;;;12.08;100.00;101363.06;4985086;28;20441;-70
2021/08/12 03:32:05;;;;;;;12.27;6.20;;;;;;;11.92;100.00;101357.59;4986310;28;20042;-70
2021/08/12 03:34:32;;;;;;;9.13;5.30;;;;;;;11.95;100.00;101359.97;4983660;28;20382;-69
2021/08/12 03:37:01;;;;;;;13.18;5.25;;;;;;;11.98;100.00;101355.16;4987559;28;20043;-70
2021/08/12 03:39:29;;;;;;;13.35;5.95;;;;;;;11.95;100.00;101363.50;4980949;28;20050;-69
2021/08/12 03:41:57;;;;;;;10.63;5.88;;;;;;;11.94;100.00;101361.00;4987629;28;20431;-69
2021/08/12 03:44:25;;;;;;;11.60;6.70;;;;;;;12.08;100.00;101360.41;4984946;28;20054;-69
2021/08/12 03:47:05;;;;;;;11.48;6.18;;;;;;;12.16;100.00;101372.97;4988557;28;20058;-69
2021/08/12 03:49:33;;;;;;;10.43;6.63;;;;;;;12.27;100.00;101377.22;4989889;28;20026;-69
2021/08/12 03:52:01;;;;;;;14.50;7.22;;;;;;;12.28;100.00;101371.69;4988445;28;20065;-69
2021/08/12 03:54:29;;;;;;;15.13;6.90;;;;;;;12.26;100.00;101380.88;4989160;28;20046;-69
2021/08/12 03:56:57;;;;;;;16.27;7.05;;;;;;;12.15;100.00;101380.19;4990193;28;20038;-69
2021/08/12 03:59:25;;;;;;;17.60;7.38;;;;;;;12.15;100.00;101392.69;4988536;28;20717;-69
2021/08/12 04:01:53;;;;;;;14.82;7.03;;;;;;;12.07;100.00;101390.00;4990254;28;20055;-69
2021/08/12 04:04:22;;;;;;;12.65;6.53;;;;;;;12.11;100.00;101389.53;4989855;28;20074;-69
2021/08/12 04:06:50;;;;;;;15.48;7.28;;;;;;;12.13;100.00;101379.47;4990118;28;20090;-70
2021/08/12 04:09:18;;;;;;;10.63;6.90;;;;;;;12.25;100.00;101380.06;4989431;28;20038;-70
2021/08/12 04:11:46;;;;;;;12.50;6.63;;;;;;;12.28;100.00;101395.81;4990512;28;20532;-69
2021/08/12 04:14:14;;;;;;;14.18;6.82;;;;;;;12.23;100.00;101388.25;4991080;28;20050;-70
2021/08/12 04:16:42;;;;;;;18.88;6.75;;;;;;;12.23;100.00;101390.06;4989517;28;20051;-69
2021/08/12 04:19:12;;;;;;;11.70;5.82;;;;;;;12.28;100.00;101390.44;4983741;28;20521;-69
2021/08/12 04:21:41;;;;;;;11.15;6.13;;;;;;;12.28;100.00;101390.44;4989245;28;20442;-69
2021/08/12 04:24:09;;;;;;;10.38;5.38;;;;;;;12.31;100.00;101387.44;4986733;28;20405;-69
2021/08/12 04:26:37;;;;;;;8.10;4.97;;;;;;;12.23;100.00;101403.47;4988276;28;20393;-69
2021/08/12 04:29:05;;;;;;;18.20;5.90;;;;;;;12.15;100.00;101401.59;4985380;28;20046;-70
2021/08/12 04:31:36;;;;;;;7.95;5.35;;;;;;;12.07;100.00;101406.06;4989231;28;20058;-69
2021/08/12 04:34:04;;;;;;;9.38;4.75;;;;;;;12.00;100.00;101406.69;4987434;28;20069;-69
2021/08/12 04:36:32;;;;;;;9.45;4.50;;;;;;;11.99;100.00;101407.69;4987530;28;20406;-69
2021/08/12 04:39:01;;;;;;;12.07;5.75;;;;;;;12.07;100.00;101414.09;4986087;28;20061;-69
2021/08/12 04:41:30;;;;;;;8.77;5.25;;;;;;;12.05;100.00;101423.13;4988154;28;20050;-69
2021/08/12 04:43:58;;;;;;;11.48;5.18;;;;;;;12.09;100.00;101420.94;4991113;28;20042;-69
2021/08/12 04:46:26;;;;;;;8.93;4.80;;;;;;;12.23;100.00;101427.56;4988886;28;20300;-69
2021/08/12 04:48:54;;;;;;;9.73;5.20;;;;;;;12.49;100.00;101421.31;4989064;28;20042;-69
2021/08/12 04:51:24;;;;;;;9.20;4.93;;;;;;;12.64;100.00;101425.06;4987969;28;20128;-70
2021/08/12 04:53:52;;;;;;;14.00;5.78;;;;;;;12.64;100.00;101411.66;4988427;28;20046;-69
2021/08/12 04:56:21;;;;;;;11.52;5.20;;;;;;;12.79;100.00;101411.06;4987402;28;20046;-69
2021/08/12 04:58:49;;;;;;;8.32;4.93;;;;;;;12.86;100.00;101402.19;4985516;28;20046;-71
2021/08/12 05:01:19;;;;;;;11.57;5.22;;;;;;;12.77;100.00;101394.28;4985556;28;20042;-69
2021/08/12 05:03:47;;;;;;;9.50;5.90;;;;;;;12.65;100.00;101391.09;4983441;28;20345;-70
2021/08/12 05:06:15;;;;;;;11.73;6.25;;;;;;;12.61;100.00;101385.22;4983183;28;20042;-69
2021/08/12 05:08:44;;;;;;;9.20;4.90;;;;;;;12.58;100.00;101390.91;4987059;28;20054;-69
2021/08/12 05:11:13;;;;;;;11.00;6.13;;;;;;;12.63;100.00;101388.56;4981859;28;20042;-70
2021/08/12 05:13:42;;;;;;;10.30;5.45;;;;;;;12.70;100.00;101384.25;4988370;28;20364;-69
2021/08/12 05:16:10;;;;;;;8.82;5.75;;;;;;;12.70;100.00;101383.38;4986643;28;20077;-69
2021/08/12 05:18:39;;;;;;;8.38;5.13;;;;;;;12.74;100.00;101374.88;4944301;28;1165256;-69
2021/08/12 05:21:07;;;;;;;9.93;6.18;;;;;;;12.81;100.00;101369.69;4986018;28;20042;-69
2021/08/12 05:23:36;;;;;;;14.23;6.20;;;;;;;12.87;100.00;101362.81;4987382;28;20038;-70
2021/08/12 05:26:04;;;;;;;7.68;4.55;;;;;;;12.86;100.00;101361.16;4983312;28;20042;-69
2021/08/12 05:28:32;;;;;;;7.93;5.75;;;;;;;12.89;100.00;101356.28;4987153;28;20050;-69
2021/08/12 05:31:04;;;;;;;7.65;5.07;;;;;;;12.97;100.00;101358.16;4983876;28;20228;-69
2021/08/12 05:33:34;;;;;;;12.27;6.80;;;;;;;13.12;100.00;101363.69;4988969;28;20358;-67
2021/08/12 05:36:02;;;;;;;14.77;8.15;;;;;;;13.53;100.00;101363.72;4989290;28;20049;-67
2021/08/12 05:38:33;;;;;;;21.10;9.68;;;;;;;13.86;100.00;101357.47;4987444;28;20365;-67
2021/08/12 05:41:01;;;;;;;20.42;9.73;;;;;;;14.07;100.00;101355.03;4984542;28;20049;-67
2021/08/12 05:43:28;;;;;;;19.35;9.63;;;;;;;14.28;100.00;101359.00;4987793;28;20308;-68
2021/08/12 05:45:56;;;;;;;17.52;9.25;;;;;;;14.52;100.00;101355.38;4989467;28;20085;-67
2021/08/12 05:48:26;;;;;;;14.60;8.63;;;;;;;14.63;100.00;101349.63;4987239;28;20316;-68
2021/08/12 05:50:53;;;;;;;17.38;8.60;;;;;;;14.93;100.00;101343.56;4986475;28;20042;-67
2021/08/12 05:53:21;;;;;;;18.00;9.00;;;;;;;15.20;100.00;101346.72;4989656;28;20046;-67
2021/08/12 05:55:50;;;;;;;11.43;8.15;;;;;;;15.26;100.00;101348.69;4988799;28;20031;-68
2021/08/12 05:58:17;;;;;;;27.40;9.50;;;;;;;15.21;100.00;101349.22;4987328;28;20053;-67
2021/08/12 06:00:45;;;;;;;50.70;10.35;;;;;;;15.20;100.00;101344.84;4987055;28;20046;-68
2021/08/12 06:03:14;;;;;;;34.95;9.60;;;;;;;15.57;100.00;101343.19;4984314;28;20049;-67
2021/08/12 06:05:44;;;;;;;33.38;8.68;;;;;;;15.78;100.00;101341.63;4984715;28;20059;-67
2021/08/12 06:08:14;;;;;;;15.68;8.68;;;;;;;15.94;100.00;101336.06;4984010;28;20043;-67
2021/08/12 06:10:42;;;;;;;17.48;8.52;;;;;;;15.82;100.00;101338.41;4984308;28;20052;-69
2021/08/12 06:13:10;;;;;;;15.10;8.30;;;;;;;16.00;100.00;101323.72;4987025;28;20070;-67
2021/08/12 06:15:38;;;;;;;11.63;6.28;;;;;;;15.88;100.00;101335.97;4987130;28;20031;-68
2021/08/12 06:18:07;;;;;;;10.27;6.38;;;;;;;15.91;100.00;101331.06;4987756;28;20137;-68
2021/08/12 06:20:35;;;;;;;10.98;5.47;;;;;;;15.82;100.00;101335.72;4983001;28;20370;-68
2021/08/12 06:23:06;;;;;;;22.73;7.90;;;;;;;15.76;100.00;101343.66;4985863;28;20449;-68
2021/08/12 06:25:34;;;;;;;35.92;8.32;;;;;;;15.57;100.00;101337.78;4986871;28;20478;-68
2021/08/12 06:28:03;;;;;;;79.30;17.98;;;;;;;15.46;100.00;101343.63;4985287;28;20092;-68
2021/08/12 06:30:31;;;;;;;14.88;6.97;;;;;;;15.62;100.00;101346.16;4984013;28;20442;-69
2021/08/12 06:32:59;;;;;;;37.65;10.45;;;;;;;15.09;100.00;101354.19;4986081;28;20034;-68
2021/08/12 06:35:31;;;;;;;8.60;4.93;;;;;;;14.75;100.00;101360.78;4986525;28;20446;-68
2021/08/12 06:37:59;;;;;;;9.68;5.38;;;;;;;14.86;100.00;101369.50;4986945;28;20034;-68
2021/08/12 06:40:29;;;;;;;9.18;4.90;;;;;;;14.84;100.00;101371.50;4984601;28;20266;-68
2021/08/12 06:42:57;;;;;;;9.15;4.63;;;;;;;15.17;100.00;101377.50;4987277;28;20050;-69
2021/08/12 06:45:26;;;;;;;8.52;5.10;;;;;;;15.41;100.00;101367.53;4986991;28;20210;-69
2021/08/12 06:47:54;;;;;;;6.40;4.20;;;;;;;15.37;100.00;101368.94;4988564;28;20129;-69
2021/08/12 06:50:23;;;;;;;9.77;4.75;;;;;;;15.42;100.00;101367.38;4986127;28;20077;-69
2021/08/12 06:52:55;;;;;;;10.82;4.78;;;;;;;15.61;100.00;101368.72;4986504;28;20126;-69
2021/08/12 06:55:23;;;;;;;16.33;5.80;;;;;;;15.83;100.00;101366.16;4986960;28;20050;-69
2021/08/12 06:57:52;;;;;;;11.60;6.38;;;;;;;15.82;100.00;101361.81;4988119;28;20042;-69
2021/08/12 07:00:22;;;;;;;10.77;6.18;;;;;;;15.90;100.00;101367.09;4986169;28;20042;-69
2021/08/12 07:02:52;;;;;;;13.60;7.07;;;;;;;16.02;100.00;101372.88;4986947;28;20382;-69
2021/08/12 07:05:20;;;;;;;18.27;8.88;;;;;;;16.15;100.00;101370.34;4985090;28;20382;-69
2021/08/12 07:07:48;;;;;;;17.90;7.85;;;;;;;16.27;100.00;101368.00;4988107;28;20062;-68
2021/08/12 07:10:16;;;;;;;17.02;8.60;;;;;;;16.85;100.00;101370.78;4983419;28;20080;-68
2021/08/12 07:12:44;;;;;;;16.10;9.32;;;;;;;17.11;100.00;101361.31;4985721;28;20329;-68
2021/08/12 07:15:13;;;;;;;18.45;8.50;;;;;;;16.89;100.00;101360.47;4987224;28;20358;-69
2021/08/12 07:17:41;;;;;;;14.00;8.57;;;;;;;16.90;100.00;101355.91;4986160;28;20057;-69
2021/08/12 07:20:10;;;;;;;16.48;9.07;;;;;;;16.95;100.00;101351.59;4981905;28;20042;-70
2021/08/12 07:22:38;;;;;;;18.35;9.40;;;;;;;16.57;100.00;101351.81;4988129;28;20333;-69
2021/08/12 07:25:07;;;;;;;15.18;9.05;;;;;;;16.65;100.00;101354.38;4984343;28;20070;-69
2021/08/12 07:27:35;;;;;;;21.30;8.48;;;;;;;16.26;100.00;101358.28;4986287;28;20354;-69
2021/08/12 07:30:03;;;;;;;14.65;8.10;;;;;;;16.58;100.00;101364.25;4983564;28;20042;-69
2021/08/12 07:32:33;;;;;;;16.30;8.45;;;;;;;16.97;100.00;101367.63;4984739;28;20355;-69
2021/08/12 07:35:00;;;;;;;17.50;8.38;;;;;;;17.40;100.00;101362.19;4987079;28;20446;-69
2021/08/12 07:37:28;;;;;;;20.75;7.78;;;;;;;17.24;100.00;101362.44;4986540;28;20051;-69
2021/08/12 07:39:57;;;;;;;18.95;8.32;;;;;;;17.61;100.00;101365.88;4984175;28;20038;-70
2021/08/12 07:42:25;;;;;;;11.75;7.35;;;;;;;18.09;100.00;101355.22;4986727;28;20166;-69
2021/08/12 07:44:53;;;;;;;12.55;7.22;;;;;;;18.82;100.00;101343.81;4986283;28;20339;-69
2021/08/12 07:47:20;;;;;;;10.57;6.53;;;;;;;19.35;100.00;101334.09;4986159;28;20374;-70
2021/08/12 07:49:50;;;;;;;11.35;6.78;;;;;;;20.15;100.00;101336.69;4983428;28;20284;-70
2021/08/12 07:52:17;;;;;;;11.48;7.25;;;;;;;20.33;100.00;101327.84;4983429;28;20050;-69
2021/08/12 07:54:48;;;;;;;12.25;7.07;;;;;;;21.32;100.00;101330.97;4987289;28;20477;-70
2021/08/12 07:57:17;;;;;;;14.85;7.30;;;;;;;21.18;100.00;101325.88;4985788;28;20043;-70
2021/08/12 07:59:44;;;;;;;11.02;5.65;;;;;;;19.81;100.00;101330.53;4986067;28;20093;-70
2021/08/12 08:02:12;;;;;;;11.00;5.78;;;;;;;20.08;100.00;101331.28;4987594;28;20393;-69
2021/08/12 08:04:43;;;;;;;12.05;6.00;;;;;;;19.86;100.00;101338.84;4983051;28;20058;-70
2021/08/12 08:07:12;;;;;;;10.27;5.95;;;;;;;19.03;100.00;101352.84;4987227;28;20046;-69
2021/08/12 08:09:40;;;;;;;11.40;6.32;;;;;;;18.88;100.00;101351.16;4981379;28;20676;-70
2021/08/12 08:12:08;;;;;;;10.85;6.78;;;;;;;18.59;100.00;101344.16;4985481;28;20050;-70
2021/08/12 08:14:36;;;;;;;9.07;6.05;;;;;;;18.51;100.00;101358.69;4986648;28;20062;-69
2021/08/12 08:17:04;;;;;;;10.25;6.35;;;;;;;18.27;100.00;101362.75;4983178;28;20070;-69
2021/08/12 08:19:33;;;;;;;7.78;5.72;;;;;;;18.58;100.00;101359.56;4984776;28;20347;-69
2021/08/12 08:22:01;;;;;;;13.05;6.32;;;;;;;18.82;100.00;101364.63;4985843;28;20149;-69
2021/08/12 08:24:30;;;;;;;9.00;5.85;;;;;;;19.04;100.00;101362.63;4986146;28;20112;-70
2021/08/12 08:26:58;;;;;;;12.90;6.53;;;;;;;19.12;100.00;101367.00;4985772;28;20049;-69
2021/08/12 08:29:26;;;;;;;10.50;5.78;;;;;;;19.49;100.00;101360.16;4983424;28;20605;-70
2021/08/12 08:31:54;;;;;;;11.55;6.28;;;;;;;19.53;100.00;101355.94;4986630;28;20065;-70
2021/08/12 08:34:24;;;;;;;11.07;6.75;;;;;;;19.44;100.00;101358.03;4989979;28;20112;-70
2021/08/12 08:36:52;;;;;;;10.65;6.45;;;;;;;19.71;100.00;101357.19;4987780;28;20047;-70
2021/08/12 08:39:21;;;;;;;11.15;6.38;;;;;;;20.06;100.00;101360.47;4984908;28;20064;-68
2021/08/12 08:41:51;;;;;;;9.18;6.07;;;;;;;20.40;100.00;101360.34;4988273;28;20496;-70
2021/08/12 08:44:19;;;;;;;14.73;7.45;;;;;;;20.24;100.00;101357.09;4991038;28;20346;-70
2021/08/12 08:46:48;;;;;;;12.88;7.03;;;;;;;20.94;100.00;101352.78;4989316;28;20430;-70
2021/08/12 08:49:18;;;;;;;11.80;6.85;;;;;;;21.27;100.00;101355.25;4987267;28;20426;-68
2021/08/12 08:51:48;;;;;;;9.43;6.40;;;;;;;21.66;100.00;101350.56;4989944;28;20038;-69
2021/08/12 08:54:17;;;;;;;8.82;6.60;;;;;;;21.60;100.00;101347.88;4987263;28;20043;-68
2021/08/12 08:56:45;;;;;;;11.60;6.55;;;;;;;21.03;100.00;101350.63;4987410;28;20507;-68
2021/08/12 08:59:14;;;;;;;10.20;6.63;;;;;;;20.93;100.00;101341.09;4985437;28;20454;-71
2021/08/12 09:01:42;;;;;;;13.27;7.05;;;;;;;20.40;100.00;101350.34;4988692;28;20061;-71
2021/08/12 09:04:10;;;;;;;12.40;7.00;;;;;;;20.20;100.00;101349.56;4989217;28;20117;-68
2021/08/12 09:06:38;;;;;;;12.70;6.40;;;;;;;20.06;100.00;101343.38;4989580;28;20042;-71
2021/08/12 09:09:06;;;;;;;11.45;6.47;;;;;;;20.13;100.00;101347.75;4987505;28;20057;-71
2021/08/12 09:11:34;;;;;;;10.30;6.05;;;;;;;20.87;100.00;101343.88;4987572;28;20035;-68
2021/08/12 09:14:34;;;;;;;10.60;7.10;;;;;;;21.02;100.00;101347.06;4987287;28;20181;-68
2021/08/12 09:17:24;;;;;;;13.23;7.25;;;;;;;20.97;100.00;101334.16;4988583;28;20920;-71
2021/08/12 09:20:09;;;;;;;11.65;6.63;;;;;;;20.58;100.00;101332.50;4985849;28;20043;-68
2021/08/12 09:23:07;;;;;;;13.27;7.43;;;;;;;20.43;100.00;101340.94;4991681;28;20342;-68
2021/08/12 09:25:36;;;;;;;12.98;7.47;;;;;;;20.68;100.00;101334.78;4964627;28;20358;-68
2021/08/12 09:28:18;;;;;;;13.95;7.00;;;;;;;20.88;100.00;101334.66;4986240;28;20104;-68
2021/08/12 09:31:08;;;;;;;12.77;6.88;;;;;;;20.83;100.00;101335.31;4988427;28;20062;-68
2021/08/12 09:33:42;;;;;;;13.27;6.65;;;;;;;20.81;100.00;101330.09;4987545;28;20062;-68
2021/08/12 09:36:20;;;;;;;;;;;;;;;20.74;100.00;101333.91;4987306;28;20054;-70
2021/08/12 09:39:05;;;;;;;12.00;6.45;;;;;;;20.34;100.00;101329.50;4985373;28;20451;-71
2021/08/12 09:41:43;;;;;;;16.33;7.32;;;;;;;20.73;100.00;101321.41;4985363;28;20077;-71
2021/08/12 09:44:52;;;;;;;10.63;7.00;;;;;;;20.88;100.00;101327.34;4986770;28;20046;-68
2021/08/12 09:47:30;;;;;;;10.77;5.88;;;;;;;20.92;100.00;101327.72;4988824;28;20830;-68
2021/08/12 09:50:00;;;;;;;10.80;6.30;;;;;;;21.40;100.00;101327.13;4986138;28;20425;-69
2021/08/12 09:52:32;;;;;;;9.95;6.18;;;;;;;21.32;100.00;101327.41;4987951;28;20109;-69
2021/08/12 09:55:09;;;;;;;10.48;5.55;;;;;;;21.62;100.00;101327.59;4987070;28;20049;-69
2021/08/12 09:57:43;;;;;;;12.38;5.88;;;;;;;22.08;100.00;101319.97;4987924;28;20042;-69
2021/08/12 10:00:13;;;;;;;10.55;6.25;;;;;;;22.18;100.00;101320.28;4986014;28;20355;-69
2021/08/12 10:02:44;;;;;;;10.50;6.30;;;;;;;22.65;100.00;101310.66;4988887;28;20042;-69
2021/08/12 10:05:12;;;;;;;9.60;6.50;;;;;;;22.68;100.00;101318.38;4986490;28;20046;-69
2021/08/12 10:07:43;;;;;;;8.38;5.30;;;;;;;23.13;100.00;101306.19;4987824;28;20438;-69
2021/08/12 10:10:21;;;;;;;11.02;5.28;;;;;;;22.91;100.00;101314.91;4983619;28;20339;-69
2021/08/12 10:12:51;;;;;;;12.18;4.80;;;;;;;22.75;100.00;101315.56;4987040;28;20049;-69
2021/08/12 10:15:22;;;;;;;9.18;5.63;;;;;;;23.02;100.00;101315.97;4987043;28;20054;-70
2021/08/12 10:17:51;;;;;;;9.02;5.88;;;;;;;22.82;100.00;101317.13;4987294;28;20042;-69
2021/08/12 10:20:23;;;;;;;9.90;5.45;;;;;;;23.16;100.00;101316.59;4983732;28;20039;-69
2021/08/12 10:22:55;;;;;;;9.40;5.30;;;;;;;23.62;100.00;101314.97;4989168;28;20046;-70
2021/08/12 10:25:24;;;;;;;7.53;4.65;;;;;;;24.92;100.00;101306.38;4985867;28;20443;-70
2021/08/12 10:27:53;;;;;;;8.85;5.25;;;;;;;25.14;100.00;101302.88;4986727;28;20049;-71
2021/08/12 10:30:24;;;;;;;7.38;5.10;;;;;;;25.67;100.00;101311.59;4987140;28;20413;-69
2021/08/12 10:32:56;;;;;;;7.53;4.35;;;;;;;24.58;100.00;101306.28;4986222;28;20235;-69
2021/08/12 10:35:25;;;;;;;7.55;4.20;;;;;;;24.10;100.00;101315.75;4987825;28;20105;-69
2021/08/12 10:37:54;;;;;;;8.45;3.95;;;;;;;24.43;100.00;101324.28;4988562;28;20057;-70
2021/08/12 10:40:24;;;;;;;6.97;4.50;;;;;;;24.31;100.00;101325.16;4982039;28;20430;-69
2021/08/12 10:42:53;;;;;;;6.03;4.85;;;;;;;24.78;100.00;101317.84;4989181;28;20117;-70
2021/08/12 10:45:23;;;;;;;6.50;4.03;;;;;;;25.20;100.00;101312.81;4986114;28;20050;-70
2021/08/12 10:47:54;;;;;;;5.97;4.40;;;;;;;24.92;100.00;101311.81;4987900;28;20100;-70
2021/08/12 10:50:47;;;;;;;9.38;4.75;;;;;;;25.59;100.00;101317.53;4985517;28;20343;-70
2021/08/12 10:53:16;;;;;;;6.53;4.53;;;;;;;27.22;100.00;101318.75;4986167;28;20054;-70
2021/08/12 10:56:05;;;;;;;6.85;4.55;;;;;;;26.41;100.00;101307.63;4987263;28;20065;-70
2021/08/12 10:58:38;;;;;;;8.70;5.05;;;;;;;28.11;100.00;101306.13;4988560;28;20094;-70
2021/08/12 11:01:07;;;;;;;12.82;5.45;;;;;;;27.74;100.00;101308.94;4984212;28;20109;-69
2021/08/12 11:03:47;;;;;;;9.88;5.15;;;;;;;28.20;100.00;101300.09;4987437;28;20438;-69
2021/08/12 11:06:18;;;;;;;10.18;4.72;;;;;;;27.49;100.00;101291.28;4985432;28;20042;-69
2021/08/12 11:09:01;;;;;;;7.97;4.03;;;;;;;27.15;100.00;101299.81;4982894;28;20073;-69
2021/08/12 11:11:56;;;;;;;6.25;4.28;;;;;;;27.17;100.00;101291.31;4980927;28;20042;-69
2021/08/12 11:14:45;;;;;;;5.97;3.50;;;;;;;27.60;100.00;101292.13;4986878;28;20401;-69
2021/08/12 11:17:13;;;;;;;5.00;3.67;;;;;;;23.51;100.00;101289.38;4984899;28;20042;-69
2021/08/12 11:19:41;;;;;;;7.30;3.90;;;;;;;23.66;100.00;101301.66;4983590;28;20049;-69
2021/08/12 11:22:36;;;;;;;4.53;3.40;;;;;;;24.02;100.00;101297.03;4986117;28;20077;-69
2021/08/12 11:25:06;;;;;;;9.07;3.80;;;;;;;24.86;100.00;101292.88;4985298;28;20112;-69
2021/08/12 11:27:41;;;;;;;6.13;3.83;;;;;;;26.70;100.00;101290.13;4988840;28;20348;-69